createdAt,value
2023-02-25T00:00:30.280Z,30.40
2023-02-25T00:02:58.037Z,30.50
2023-02-25T00:05:31.582Z,30.50
2023-02-25T00:07:58.423Z,30.50
2023-02-25T00:10:24.511Z,30.50
2023-02-25T00:12:50.657Z,30.50
2023-02-25T00:15:16.837Z,30.50
2023-02-25T00:17:43.279Z,30.50
2023-02-25T00:20:12.432Z,30.50
2023-02-25T00:22:39.022Z,30.50
2023-02-25T00:25:05.622Z,30.50
2023-02-25T00:27:31.718Z,30.50
2023-02-25T00:29:58.307Z,30.50
2023-02-25T00:32:24.833Z,30.50
2023-02-25T00:34:51.368Z,30.50
2023-02-25T00:37:17.810Z,30.50
2023-02-25T00:39:44.001Z,30.60
2023-02-25T00:42:15.355Z,30.50
2023-02-25T00:44:49.644Z,30.50
2023-02-25T00:47:17.993Z,30.60
2023-02-25T00:49:47.299Z,30.50
2023-02-25T00:52:13.895Z,30.50
2023-02-25T00:54:39.979Z,30.60
2023-02-25T00:57:06.221Z,30.60
2023-02-25T00:59:32.457Z,30.60
2023-02-25T01:01:58.706Z,30.60
2023-02-25T01:04:25.183Z,30.60
2023-02-25T01:06:53.378Z,30.60
2023-02-25T01:09:19.760Z,30.60
2023-02-25T01:11:47.084Z,30.60
2023-02-25T01:14:21.391Z,30.60
2023-02-25T01:16:48.595Z,30.60
2023-02-25T01:19:20.230Z,30.60
2023-02-25T01:21:48.904Z,30.60
2023-02-25T01:24:20.124Z,30.60
2023-02-25T01:26:47.290Z,30.60
2023-02-25T01:29:18.944Z,30.60
2023-02-25T01:31:45.669Z,30.70
2023-02-25T01:34:17.411Z,30.60
2023-02-25T01:36:44.786Z,30.60
2023-02-25T01:39:12.429Z,30.70
2023-02-25T01:41:38.738Z,30.60
2023-02-25T01:44:12.558Z,30.70
2023-02-25T01:46:40.583Z,30.60
2023-02-25T01:49:14.818Z,30.60
2023-02-25T01:51:43.727Z,30.60
2023-02-25T01:54:11.879Z,30.70
2023-02-25T01:56:41.741Z,30.70
2023-02-25T01:59:08.807Z,30.70
2023-02-25T02:01:37.839Z,30.70
2023-02-25T02:04:06.312Z,30.70
2023-02-25T02:06:44.551Z,30.70
2023-02-25T02:09:17.657Z,30.70
2023-02-25T02:11:44.128Z,30.70
2023-02-25T02:14:19.443Z,30.80
2023-02-25T02:17:00.232Z,30.70
2023-02-25T02:19:47.782Z,30.70
2023-02-25T02:22:27.471Z,30.70
2023-02-25T02:25:00.962Z,30.80
2023-02-25T02:27:55.856Z,30.80
2023-02-25T02:30:38.533Z,30.80
2023-02-25T02:33:15.067Z,30.80
2023-02-25T02:36:07.548Z,30.80
2023-02-25T02:38:47.815Z,30.80
2023-02-25T02:41:36.109Z,30.80
2023-02-25T02:44:25.421Z,30.80
2023-02-25T02:47:00.666Z,30.80
2023-02-25T02:49:43.085Z,30.80
2023-02-25T02:52:15.424Z,30.80
2023-02-25T02:54:47.820Z,30.80
2023-02-25T02:57:17.484Z,30.80
2023-02-25T02:59:51.506Z,30.80
2023-02-25T03:02:27.021Z,30.80
2023-02-25T03:04:57.086Z,30.80
2023-02-25T03:07:23.371Z,30.80
2023-02-25T03:09:53.208Z,30.80
2023-02-25T03:12:19.518Z,30.80
2023-02-25T03:14:47.489Z,30.80
2023-02-25T03:17:18.445Z,30.80
2023-02-25T03:20:12.964Z,30.80
2023-02-25T03:22:42.727Z,30.90
2023-02-25T03:25:18.056Z,30.80
2023-02-25T03:27:47.057Z,30.90
2023-02-25T03:30:20.137Z,30.90
2023-02-25T03:32:51.831Z,30.90
2023-02-25T03:35:20.404Z,30.90
2023-02-25T03:37:52.467Z,30.90
2023-02-25T03:40:21.146Z,31.50
2023-02-25T03:43:16.594Z,30.90
2023-02-25T03:45:44.468Z,30.90
2023-02-25T03:48:13.430Z,30.90
2023-02-25T03:50:50.532Z,30.90
2023-02-25T03:53:16.718Z,30.90
2023-02-25T03:55:42.939Z,30.90
2023-02-25T03:58:09.324Z,30.90
2023-02-25T04:00:38.053Z,30.90
2023-02-25T04:03:04.722Z,30.90
2023-02-25T04:05:31.142Z,30.90
2023-02-25T04:07:58.528Z,30.90
2023-02-25T04:10:25.458Z,30.90
2023-02-25T04:12:51.575Z,30.90
2023-02-25T04:15:18.608Z,30.90
2023-02-25T04:17:44.969Z,30.90
2023-02-25T04:20:13.239Z,30.90
2023-02-25T04:22:39.460Z,30.90
2023-02-25T04:25:06.074Z,30.90
2023-02-25T04:27:32.141Z,30.90
2023-02-25T04:29:58.837Z,30.90
2023-02-25T04:32:25.300Z,30.90
2023-02-25T04:34:51.598Z,30.90
2023-02-25T04:37:17.764Z,30.90
2023-02-25T04:39:43.996Z,30.90
2023-02-25T04:42:10.087Z,30.90
2023-02-25T04:44:36.201Z,30.90
2023-02-25T04:47:02.406Z,30.90
2023-02-25T04:49:28.541Z,30.90
2023-02-25T04:51:54.604Z,30.90
2023-02-25T04:54:21.074Z,30.90
2023-02-25T04:56:47.884Z,30.90
2023-02-25T04:59:14.711Z,30.90
2023-02-25T05:01:41.211Z,30.90
2023-02-25T05:04:07.447Z,30.90
2023-02-25T05:06:34.166Z,30.90
2023-02-25T05:09:00.421Z,30.90
2023-02-25T05:11:27.698Z,30.90
2023-02-25T05:13:57.688Z,31.00
2023-02-25T05:16:24.835Z,31.00
2023-02-25T05:18:51.884Z,31.10
2023-02-25T05:21:21.344Z,31.10
2023-02-25T05:23:49.522Z,31.10
2023-02-25T05:26:17.263Z,31.10
2023-02-25T05:28:43.499Z,31.00
2023-02-25T05:31:11.366Z,31.10
2023-02-25T05:33:39.010Z,31.00
2023-02-25T05:36:06.789Z,31.10
2023-02-25T05:38:33.601Z,31.00
2023-02-25T05:41:00.928Z,31.00
2023-02-25T05:43:28.422Z,31.00
2023-02-25T05:45:56.591Z,31.00
2023-02-25T05:48:22.875Z,30.90
2023-02-25T05:50:50.646Z,31.00
2023-02-25T05:53:17.991Z,30.90
2023-02-25T05:55:45.239Z,31.60
2023-02-25T05:58:11.879Z,30.90
2023-02-25T06:00:38.789Z,30.90
2023-02-25T06:03:06.329Z,30.90
2023-02-25T06:05:32.450Z,30.90
2023-02-25T06:07:58.651Z,30.90
2023-02-25T06:10:25.823Z,30.80
2023-02-25T06:12:52.489Z,30.80
2023-02-25T06:15:18.997Z,30.80
2023-02-25T06:17:45.176Z,30.80
2023-02-25T06:20:11.682Z,30.80
2023-02-25T06:22:37.735Z,30.70
2023-02-25T06:25:04.109Z,30.70
2023-02-25T06:27:30.697Z,30.70
2023-02-25T06:29:59.218Z,30.70
2023-02-25T06:32:26.407Z,30.60
2023-02-25T06:34:52.500Z,30.60
2023-02-25T06:37:18.564Z,30.60
2023-02-25T06:39:44.611Z,30.60
2023-02-25T06:42:10.710Z,30.60
2023-02-25T06:44:36.838Z,30.60
2023-02-25T06:47:02.989Z,30.50
2023-02-25T06:49:29.764Z,30.50
2023-02-25T06:51:55.799Z,30.50
2023-02-25T06:54:21.854Z,30.50
2023-02-25T06:56:48.000Z,30.40
2023-02-25T06:59:14.040Z,30.40
2023-02-25T07:01:41.007Z,30.50
2023-02-25T07:04:07.148Z,30.40
2023-02-25T07:06:33.298Z,30.40
2023-02-25T07:08:59.334Z,30.40
2023-02-25T07:11:29.332Z,30.40
2023-02-25T07:13:56.254Z,30.40
2023-02-25T07:16:23.028Z,30.40
2023-02-25T07:18:50.247Z,30.40
2023-02-25T07:21:17.244Z,30.40
2023-02-25T07:23:43.770Z,30.30
2023-02-25T07:26:12.173Z,30.40
2023-02-25T07:28:38.390Z,30.30
2023-02-25T07:31:10.723Z,30.30
2023-02-25T07:33:36.848Z,30.30
2023-02-25T07:36:03.080Z,30.20
2023-02-25T07:38:29.144Z,30.20
2023-02-25T07:40:55.200Z,30.20
2023-02-25T07:43:21.298Z,30.20
2023-02-25T07:45:49.683Z,30.20
2023-02-25T07:48:15.887Z,30.20
2023-02-25T07:50:44.075Z,30.20
2023-02-25T07:53:10.179Z,30.20
2023-02-25T07:55:36.230Z,30.10
2023-02-25T07:58:02.309Z,30.10
2023-02-25T08:00:28.396Z,30.10
2023-02-25T08:02:54.591Z,30.10
2023-02-25T08:05:22.010Z,30.10
2023-02-25T08:07:48.106Z,30.10
2023-02-25T08:10:14.249Z,30.10
2023-02-25T08:12:40.328Z,30.00
2023-02-25T08:15:06.835Z,30.10
2023-02-25T08:17:35.795Z,30.70
2023-02-25T08:20:02.598Z,30.00
2023-02-25T08:22:28.670Z,30.00
2023-02-25T08:24:54.748Z,30.00
2023-02-25T08:27:20.902Z,30.00
2023-02-25T08:29:47.106Z,30.00
2023-02-25T08:32:13.326Z,30.00
2023-02-25T08:34:39.521Z,30.00
2023-02-25T08:37:10.456Z,30.10
2023-02-25T08:39:37.309Z,30.10
2023-02-25T08:42:03.779Z,30.10
2023-02-25T08:44:29.847Z,30.10
2023-02-25T08:46:55.959Z,30.10
2023-02-25T08:49:22.026Z,30.10
2023-02-25T08:51:50.135Z,30.10
2023-02-25T08:54:16.376Z,30.10
2023-02-25T08:56:43.653Z,30.10
2023-02-25T08:59:14.979Z,30.10
2023-02-25T09:01:44.274Z,30.10
2023-02-25T09:04:12.097Z,30.10
2023-02-25T09:06:38.264Z,30.10
2023-02-25T09:09:04.993Z,30.10
2023-02-25T09:11:31.876Z,30.10
2023-02-25T09:13:58.021Z,30.20
2023-02-25T09:16:24.159Z,30.10
2023-02-25T09:18:51.002Z,30.20
2023-02-25T09:21:18.604Z,30.10
2023-02-25T09:23:46.096Z,30.20
2023-02-25T09:26:12.420Z,30.10
2023-02-25T09:28:39.058Z,30.10
2023-02-25T09:31:05.327Z,30.20
2023-02-25T09:33:32.815Z,30.20
2023-02-25T09:36:14.706Z,30.20
2023-02-25T09:38:41.975Z,30.20
2023-02-25T09:41:16.561Z,30.20
2023-02-25T09:43:43.162Z,30.20
2023-02-25T09:46:13.011Z,30.20
2023-02-25T09:48:56.514Z,30.20
2023-02-25T09:51:28.696Z,30.20
2023-02-25T09:54:09.547Z,30.20
2023-02-25T09:56:35.776Z,30.30
2023-02-25T09:59:01.872Z,30.30
2023-02-25T10:01:52.276Z,30.30
2023-02-25T10:04:29.824Z,30.30
2023-02-25T10:07:00.866Z,30.30
2023-02-25T10:09:36.844Z,30.30
2023-02-25T10:12:27.359Z,30.30
2023-02-25T10:15:25.611Z,30.30
2023-02-25T10:18:13.789Z,30.30
2023-02-25T10:20:57.696Z,30.30
2023-02-25T10:23:55.016Z,30.30
2023-02-25T10:26:29.214Z,30.30
2023-02-25T10:29:07.079Z,30.30
2023-02-25T10:31:35.047Z,30.30
2023-02-25T10:34:25.477Z,30.40
2023-02-25T10:36:56.942Z,30.30
2023-02-25T10:39:24.675Z,30.40
2023-02-25T10:41:51.041Z,30.40
2023-02-25T10:44:17.465Z,30.30
2023-02-25T10:47:00.897Z,30.40
2023-02-25T10:49:29.523Z,30.40
2023-02-25T10:52:03.666Z,30.40
2023-02-25T10:54:44.585Z,30.40
2023-02-25T10:57:15.782Z,30.40
2023-02-25T10:59:43.741Z,30.40
2023-02-25T11:02:23.569Z,30.40
2023-02-25T11:04:51.928Z,30.40
2023-02-25T11:07:39.375Z,30.40
2023-02-25T11:10:15.635Z,30.40
2023-02-25T11:12:52.386Z,30.40
2023-02-25T11:15:46.581Z,30.40
2023-02-25T11:18:27.254Z,30.40
2023-02-25T11:20:56.299Z,30.40
2023-02-25T11:23:34.395Z,30.40
2023-02-25T11:26:00.904Z,30.40
2023-02-25T11:28:38.732Z,30.40
2023-02-25T11:31:24.204Z,30.40
2023-02-25T11:34:04.588Z,30.40
2023-02-25T11:36:33.791Z,30.50
2023-02-25T11:39:20.342Z,30.40
2023-02-25T11:41:49.097Z,30.40
2023-02-25T11:44:21.343Z,30.40
2023-02-25T11:46:59.398Z,30.40
2023-02-25T11:49:51.795Z,30.40
2023-02-25T11:52:25.793Z,31.10
2023-02-25T11:55:43.533Z,30.50
2023-02-25T11:58:16.427Z,30.50
2023-02-25T12:01:06.169Z,30.40
2023-02-25T12:03:42.881Z,30.40
2023-02-25T12:06:21.929Z,30.50
2023-02-25T12:09:15.867Z,30.50
2023-02-25T12:12:10.174Z,30.50
2023-02-25T12:15:03.825Z,30.50
2023-02-25T12:17:41.098Z,30.40
2023-02-25T12:20:24.665Z,30.50
2023-02-25T12:23:18.165Z,30.50
2023-02-25T12:25:55.936Z,30.50
2023-02-25T12:28:44.837Z,30.50
2023-02-25T12:31:44.088Z,30.50
2023-02-25T12:34:38.981Z,30.60
2023-02-25T12:37:16.331Z,30.50
2023-02-25T12:40:14.878Z,30.50
2023-02-25T12:43:00.240Z,30.50
2023-02-25T12:45:47.824Z,30.50
2023-02-25T12:48:56.321Z,30.50
2023-02-25T12:51:28.220Z,30.50
2023-02-25T12:54:34.015Z,30.60
2023-02-25T12:57:06.317Z,30.50
2023-02-25T12:59:41.160Z,30.60
2023-02-25T13:02:28.968Z,30.60
2023-02-25T13:05:24.169Z,30.50
2023-02-25T13:07:57.384Z,30.60
2023-02-25T13:10:57.387Z,30.60
2023-02-25T13:13:45.628Z,30.60
2023-02-25T13:16:35.064Z,30.60
2023-02-25T13:19:31.598Z,30.60
2023-02-25T13:22:23.090Z,30.50
2023-02-25T13:25:10.975Z,30.60
2023-02-25T13:27:54.479Z,30.60
2023-02-25T13:30:29.694Z,30.60
2023-02-25T13:33:10.692Z,30.60
2023-02-25T13:36:10.756Z,30.60
2023-02-25T13:39:09.108Z,30.60
2023-02-25T13:41:52.681Z,30.60
2023-02-25T13:44:46.289Z,30.60
2023-02-25T13:47:40.193Z,30.60
2023-02-25T13:50:26.213Z,30.60
2023-02-25T13:53:14.633Z,30.60
2023-02-25T13:56:03.333Z,30.60
2023-02-25T13:58:50.023Z,30.60
2023-02-25T14:01:41.196Z,30.60
2023-02-25T14:04:45.100Z,30.60
2023-02-25T14:07:35.613Z,30.60
2023-02-25T14:10:28.426Z,30.60
2023-02-25T14:13:17.863Z,30.60
2023-02-25T14:16:27.385Z,31.00
2023-02-25T14:19:03.907Z,30.60
2023-02-25T14:22:09.452Z,30.60
2023-02-25T14:24:59.934Z,30.50
2023-02-25T14:27:46.921Z,30.60
2023-02-25T14:30:28.318Z,30.70
2023-02-25T14:33:21.553Z,30.60
2023-02-25T14:36:15.630Z,30.60
2023-02-25T14:39:01.758Z,30.60
2023-02-25T14:41:47.038Z,30.60
2023-02-25T14:44:23.496Z,30.60
2023-02-25T14:47:11.624Z,30.60
2023-02-25T14:49:50.278Z,30.60
2023-02-25T14:52:23.521Z,30.60
2023-02-25T14:55:27.321Z,30.60
2023-02-25T14:58:24.270Z,30.60
2023-02-25T15:01:20.285Z,30.70
2023-02-25T15:04:06.690Z,30.60
2023-02-25T15:06:59.786Z,30.60
2023-02-25T15:09:56.640Z,30.60
2023-02-25T15:12:44.336Z,30.70
2023-02-25T15:15:27.750Z,30.70
2023-02-25T15:18:24.891Z,30.60
2023-02-25T15:20:51.313Z,30.70
2023-02-25T15:23:22.987Z,30.60
2023-02-25T15:26:21.037Z,31.30
2023-02-25T15:28:57.012Z,30.70
2023-02-25T15:31:28.038Z,30.70
2023-02-25T15:34:15.113Z,30.70
2023-02-25T15:36:49.429Z,30.70
2023-02-25T15:39:40.590Z,30.70
2023-02-25T15:42:10.245Z,30.70
2023-02-25T15:44:39.701Z,30.60
2023-02-25T15:47:22.291Z,30.60
2023-02-25T15:49:49.714Z,30.60
2023-02-25T15:52:51.876Z,30.60
2023-02-25T15:55:32.676Z,30.60
2023-02-25T15:57:59.711Z,30.60
2023-02-25T16:00:51.269Z,30.70
2023-02-25T16:03:39.063Z,30.60
2023-02-25T16:06:15.953Z,30.70
2023-02-25T16:08:58.044Z,30.60
2023-02-25T16:11:48.862Z,30.70
2023-02-25T16:14:29.963Z,30.70
2023-02-25T16:17:18.604Z,30.80
2023-02-25T16:19:51.498Z,30.70
2023-02-25T16:22:24.055Z,30.80
2023-02-25T16:24:53.632Z,30.80
2023-02-25T16:27:44.122Z,30.70
2023-02-25T16:30:20.509Z,30.70
2023-02-25T16:33:19.869Z,30.70
2023-02-25T16:35:57.668Z,30.70
2023-02-25T16:38:49.334Z,30.70
2023-02-25T16:41:15.548Z,30.60
2023-02-25T16:43:42.987Z,30.60
2023-02-25T16:46:16.577Z,30.50
2023-02-25T16:48:50.319Z,30.50
2023-02-25T16:51:40.673Z,30.50
2023-02-25T16:54:13.779Z,30.40
2023-02-25T16:56:42.389Z,30.40
2023-02-25T16:59:19.405Z,30.40
2023-02-25T17:01:49.694Z,30.40
2023-02-25T17:04:19.269Z,30.40
2023-02-25T17:07:12.373Z,30.30
2023-02-25T17:09:53.284Z,30.30
2023-02-25T17:12:40.528Z,30.90
2023-02-25T17:15:35.845Z,30.20
2023-02-25T17:18:16.650Z,30.20
2023-02-25T17:20:42.815Z,30.10
2023-02-25T17:23:12.480Z,30.10
2023-02-25T17:25:46.485Z,30.00
2023-02-25T17:28:22.601Z,30.10
2023-02-25T17:30:49.845Z,30.00
2023-02-25T17:33:21.245Z,30.00
2023-02-25T17:35:49.317Z,30.00
2023-02-25T17:38:19.794Z,30.00
2023-02-25T17:40:46.380Z,30.00
2023-02-25T17:43:17.487Z,30.00
2023-02-25T17:45:57.176Z,30.00
2023-02-25T17:48:40.416Z,30.00
2023-02-25T17:51:07.683Z,29.90
2023-02-25T17:53:45.355Z,29.90
2023-02-25T17:56:25.135Z,29.80
2023-02-25T17:59:12.598Z,29.80
2023-02-25T18:01:52.601Z,29.80
2023-02-25T18:04:41.839Z,28.90
2023-02-25T18:07:29.981Z,29.20
2023-02-25T18:09:56.902Z,29.40
2023-02-25T18:12:37.851Z,29.40
2023-02-25T18:15:24.927Z,29.50
2023-02-25T18:18:06.718Z,29.50
2023-02-25T18:20:40.296Z,29.50
2023-02-25T18:23:17.431Z,29.50
2023-02-25T18:25:46.616Z,29.50
2023-02-25T18:28:23.582Z,29.60
2023-02-25T18:30:50.189Z,29.50
2023-02-25T18:33:18.300Z,29.60
2023-02-25T18:35:46.314Z,29.60
2023-02-25T18:38:31.195Z,29.60
2023-02-25T18:40:58.195Z,29.60
2023-02-25T18:43:33.683Z,29.60
2023-02-25T18:46:00.918Z,29.60
2023-02-25T18:48:27.044Z,29.60
2023-02-25T18:50:55.703Z,29.60
2023-02-25T18:53:23.784Z,29.60
2023-02-25T18:55:51.495Z,29.60
2023-02-25T18:58:18.958Z,29.60
2023-02-25T19:00:47.992Z,29.60
2023-02-25T19:03:19.908Z,29.60
2023-02-25T19:05:46.499Z,29.60
2023-02-25T19:08:13.784Z,29.60
2023-02-25T19:10:40.364Z,29.70
2023-02-25T19:13:13.341Z,29.70
2023-02-25T19:15:39.456Z,29.70
2023-02-25T19:18:05.850Z,29.70
2023-02-25T19:20:31.932Z,29.70
2023-02-25T19:22:58.021Z,29.70
2023-02-25T19:25:31.044Z,29.70
2023-02-25T19:27:57.436Z,29.70
2023-02-25T19:30:30.261Z,29.70
2023-02-25T19:33:02.271Z,29.70
2023-02-25T19:35:32.186Z,29.70
2023-02-25T19:37:58.300Z,29.70
2023-02-25T19:40:24.916Z,29.70
2023-02-25T19:42:51.513Z,30.20
2023-02-25T19:45:21.018Z,29.70
2023-02-25T19:47:48.480Z,29.70
2023-02-25T19:50:15.878Z,29.70
2023-02-25T19:52:43.986Z,29.80
2023-02-25T19:55:11.426Z,29.70
2023-02-25T19:57:38.808Z,29.70
2023-02-25T20:00:08.799Z,29.80
2023-02-25T20:02:35.048Z,29.80
2023-02-25T20:05:01.107Z,29.70
2023-02-25T20:07:27.186Z,29.80
2023-02-25T20:09:53.295Z,29.70
2023-02-25T20:12:21.237Z,29.80
2023-02-25T20:14:47.278Z,29.70
2023-02-25T20:17:13.383Z,29.70
2023-02-25T20:19:39.492Z,29.70
2023-02-25T20:22:05.724Z,29.80
2023-02-25T20:24:32.601Z,29.80
2023-02-25T20:26:59.237Z,29.80
2023-02-25T20:29:26.391Z,30.20
2023-02-25T20:31:52.964Z,29.70
2023-02-25T20:34:21.897Z,29.70
2023-02-25T20:37:03.088Z,29.80
2023-02-25T20:39:38.303Z,29.80
2023-02-25T20:42:09.037Z,29.80
2023-02-25T20:44:35.421Z,29.80
2023-02-25T20:47:01.708Z,29.80
2023-02-25T20:49:27.946Z,29.80
2023-02-25T20:51:54.336Z,29.80
2023-02-25T20:54:20.429Z,29.80
2023-02-25T20:56:47.829Z,29.80
2023-02-25T20:59:15.207Z,29.80
2023-02-25T21:01:41.808Z,29.80
2023-02-25T21:04:08.773Z,29.80
2023-02-25T21:06:36.615Z,29.80
2023-02-25T21:09:03.983Z,29.80
2023-02-25T21:11:30.433Z,29.80
2023-02-25T21:13:56.520Z,29.80
2023-02-25T21:16:23.281Z,29.80
2023-02-25T21:18:50.850Z,29.80
2023-02-25T21:21:19.641Z,29.80
2023-02-25T21:23:46.122Z,29.80
2023-02-25T21:26:12.832Z,29.80
2023-02-25T21:28:40.483Z,29.80
2023-02-25T21:31:09.771Z,29.80
2023-02-25T21:33:37.001Z,29.80
2023-02-25T21:36:04.316Z,29.80
2023-02-25T21:38:30.486Z,29.80
2023-02-25T21:41:02.972Z,29.80
2023-02-25T21:43:29.185Z,29.80
2023-02-25T21:45:57.581Z,29.80
2023-02-25T21:48:24.983Z,29.80
2023-02-25T21:50:51.595Z,29.80
2023-02-25T21:53:18.262Z,29.80
2023-02-25T21:55:44.498Z,29.80
2023-02-25T21:58:11.546Z,29.80
2023-02-25T22:00:38.573Z,29.80
2023-02-25T22:03:10.014Z,29.80
2023-02-25T22:05:36.913Z,29.80
2023-02-25T22:08:04.366Z,29.80
2023-02-25T22:10:33.489Z,29.80
2023-02-25T22:12:59.535Z,29.80
2023-02-25T22:15:25.616Z,29.80
2023-02-25T22:17:51.755Z,29.80
2023-02-25T22:20:18.693Z,29.80
2023-02-25T22:22:44.823Z,29.80
2023-02-25T22:25:10.983Z,29.80
2023-02-25T22:27:37.065Z,29.80
2023-02-25T22:30:03.940Z,29.80
2023-02-25T22:32:30.092Z,29.80
2023-02-25T22:34:56.152Z,29.80
2023-02-25T22:37:22.263Z,29.80
2023-02-25T22:39:48.295Z,29.80
2023-02-25T22:42:14.543Z,29.80
2023-02-25T22:44:40.615Z,29.80
2023-02-25T22:47:06.684Z,29.80
2023-02-25T22:49:32.841Z,29.80
2023-02-25T22:51:58.986Z,29.80
2023-02-25T22:54:25.212Z,29.80
2023-02-25T22:56:51.361Z,29.80
2023-02-25T22:59:17.576Z,29.80
2023-02-25T23:01:43.792Z,29.80
2023-02-25T23:04:09.924Z,29.80
2023-02-25T23:06:45.282Z,29.80
2023-02-25T23:09:14.316Z,29.80
2023-02-25T23:11:42.307Z,29.80
2023-02-25T23:14:08.470Z,29.90
2023-02-25T23:16:39.633Z,29.90
2023-02-25T23:19:07.203Z,29.80
2023-02-25T23:21:37.787Z,29.80
2023-02-25T23:24:04.899Z,29.80
2023-02-25T23:26:35.444Z,29.80
2023-02-25T23:29:03.472Z,29.80
2023-02-25T23:31:33.710Z,29.90
2023-02-25T23:34:02.742Z,29.80
2023-02-25T23:36:29.118Z,29.80
2023-02-25T23:38:57.248Z,29.80
2023-02-25T23:41:24.506Z,29.80
2023-02-25T23:43:55.507Z,29.80
2023-02-25T23:46:25.597Z,29.90
2023-02-25T23:49:00.453Z,29.80
2023-02-25T23:51:27.695Z,29.80
2023-02-25T23:53:59.184Z,29.80
2023-02-25T23:56:28.928Z,29.80
2023-02-25T23:58:55.201Z,29.80
